createdAt,value
2023-04-23T00:02:55.479Z,20.50
2023-04-23T00:08:00.634Z,16.80
2023-04-23T00:13:04.627Z,18.90
2023-04-23T00:18:08.124Z,22.00
2023-04-23T00:23:11.137Z,26.20
2023-04-23T00:28:13.904Z,17.90
2023-04-23T00:33:16.818Z,21.80
2023-04-23T00:38:21.225Z,15.20
2023-04-23T00:43:24.188Z,15.10
2023-04-23T00:48:29.123Z,13.30
2023-04-23T00:53:33.593Z,17.80
2023-04-23T00:58:36.807Z,18.80
2023-04-23T01:03:43.048Z,16.70
2023-04-23T01:08:47.760Z,16.20
2023-04-23T01:13:50.768Z,14.10
2023-04-23T01:18:53.965Z,17.30
2023-04-23T01:23:56.744Z,14.00
2023-04-23T01:29:01.343Z,16.00
2023-04-23T01:34:04.631Z,16.10
2023-04-23T01:39:09.122Z,14.80
2023-04-23T01:44:12.298Z,14.30
2023-04-23T01:49:15.735Z,12.20
2023-04-23T01:54:18.565Z,14.10
2023-04-23T01:59:24.402Z,14.80
2023-04-23T02:04:28.226Z,13.40
2023-04-23T02:09:31.160Z,16.70
2023-04-23T02:14:34.053Z,15.60
2023-04-23T02:19:36.851Z,16.00
2023-04-23T02:24:42.254Z,16.50
2023-04-23T02:29:46.716Z,15.20
2023-04-23T02:34:49.481Z,13.40
2023-04-23T02:39:52.256Z,14.40
2023-04-23T02:44:54.996Z,13.30
2023-04-23T02:49:59.321Z,16.40
2023-04-23T02:55:05.277Z,11.10
2023-04-23T03:00:09.670Z,14.30
2023-04-23T03:05:12.806Z,14.20
2023-04-23T03:10:15.736Z,15.60
2023-04-23T03:15:18.821Z,13.60
2023-04-23T03:20:21.936Z,16.30
2023-04-23T03:25:25.902Z,10.30
2023-04-23T03:30:29.801Z,11.10
2023-04-23T03:35:32.738Z,11.90
2023-04-23T03:40:35.894Z,12.20
2023-04-23T03:45:38.661Z,12.40
2023-04-23T03:50:41.495Z,15.40
2023-04-23T03:55:44.957Z,9.80
2023-04-23T04:00:47.822Z,10.60
2023-04-23T04:05:50.665Z,11.40
2023-04-23T04:10:53.659Z,9.70
2023-04-23T04:15:56.603Z,10.70
2023-04-23T04:20:59.793Z,13.80
2023-04-23T04:26:02.801Z,16.40
2023-04-23T04:31:06.911Z,13.10
2023-04-23T04:36:09.889Z,14.70
2023-04-23T04:41:13.288Z,8.50
2023-04-23T04:46:16.277Z,9.50
2023-04-23T04:51:20.375Z,11.40
2023-04-23T04:56:24.166Z,9.70
2023-04-23T05:01:29.074Z,8.40
2023-04-23T05:06:32.471Z,8.60
2023-04-23T05:11:36.044Z,9.30
2023-04-23T05:16:38.918Z,8.20
2023-04-23T05:21:42.683Z,10.80
2023-04-23T05:26:45.587Z,9.30
2023-04-23T05:31:51.853Z,10.70
2023-04-23T05:36:54.756Z,9.80
2023-04-23T05:41:58.155Z,12.10
2023-04-23T05:47:01.072Z,9.10
2023-04-23T05:52:04.036Z,11.60
2023-04-23T05:57:07.114Z,8.90
2023-04-23T06:02:11.241Z,8.90
2023-04-23T06:07:15.319Z,7.20
2023-04-23T06:12:18.493Z,8.80
2023-04-23T06:17:21.393Z,8.60
2023-04-23T06:22:24.266Z,8.20
2023-04-23T06:27:27.298Z,10.20
2023-04-23T06:32:30.137Z,7.50
2023-04-23T06:37:32.990Z,9.70
2023-04-23T06:42:35.958Z,9.20
2023-04-23T06:47:38.763Z,8.10
2023-04-23T06:52:41.963Z,8.10
2023-04-23T06:57:44.917Z,10.80
2023-04-23T07:02:47.924Z,7.70
2023-04-23T07:07:50.978Z,9.70
2023-04-23T07:12:53.745Z,10.10
2023-04-23T07:17:56.804Z,8.40
2023-04-23T07:22:59.904Z,8.30
2023-04-23T07:28:02.835Z,7.30
2023-04-23T07:33:06.162Z,8.70
2023-04-23T07:38:09.139Z,10.00
2023-04-23T07:43:12.484Z,8.70
2023-04-23T07:48:15.363Z,6.60
2023-04-23T07:53:18.334Z,8.50
2023-04-23T07:58:21.343Z,9.30
2023-04-23T08:03:24.650Z,9.40
2023-04-23T08:08:27.701Z,8.90
2023-04-23T08:13:30.641Z,9.80
2023-04-23T08:18:33.523Z,10.30
2023-04-23T08:23:36.323Z,8.20
2023-04-23T08:28:39.131Z,8.50
2023-04-23T08:33:42.044Z,7.70
2023-04-23T08:38:44.883Z,15.30
2023-04-23T08:44:14.675Z,9.40
2023-04-23T08:49:18.907Z,7.10
2023-04-23T08:54:28.066Z,9.60
2023-04-23T08:59:32.114Z,8.20
2023-04-23T09:04:36.470Z,9.70
2023-04-23T09:09:41.059Z,10.70
2023-04-23T09:14:45.143Z,16.10
2023-04-23T09:19:51.100Z,8.30
2023-04-23T09:24:54.584Z,9.10
2023-04-23T09:29:59.597Z,9.00
2023-04-23T09:35:07.911Z,8.60
2023-04-23T09:40:18.559Z,10.50
2023-04-23T09:45:22.141Z,11.30
2023-04-23T09:50:40.009Z,9.60
2023-04-23T09:55:45.014Z,8.20
2023-04-23T10:00:48.655Z,6.70
2023-04-23T10:06:01.958Z,8.30
2023-04-23T10:11:19.839Z,7.90
2023-04-23T10:16:26.886Z,8.10
2023-04-23T10:21:46.279Z,11.30
2023-04-23T10:26:59.812Z,6.70
2023-04-23T10:32:07.206Z,15.60
2023-04-23T10:37:12.037Z,8.90
2023-04-23T10:42:16.908Z,11.30
2023-04-23T10:47:22.603Z,8.10
2023-04-23T10:52:26.281Z,7.30
2023-04-23T10:57:29.277Z,6.70
2023-04-23T11:02:44.985Z,14.10
2023-04-23T11:08:18.953Z,6.70
2023-04-23T11:13:28.194Z,8.20
2023-04-23T11:18:30.982Z,7.70
2023-04-23T11:23:34.034Z,8.30
2023-04-23T11:28:39.745Z,10.40
2023-04-23T11:33:42.791Z,9.20
2023-04-23T11:38:46.218Z,10.00
2023-04-23T11:43:49.039Z,8.70
2023-04-23T11:48:52.077Z,7.30
2023-04-23T11:53:55.048Z,9.90
2023-04-23T11:59:05.363Z,11.40
2023-04-23T12:04:13.568Z,8.60
2023-04-23T12:09:21.193Z,6.20
2023-04-23T12:14:30.640Z,8.00
2023-04-23T12:19:33.673Z,9.20
2023-04-23T12:24:54.523Z,9.40
2023-04-23T12:30:02.234Z,8.10
2023-04-23T12:35:07.256Z,11.20
2023-04-23T12:40:11.096Z,9.60
2023-04-23T12:45:13.920Z,9.60
2023-04-23T12:50:16.986Z,7.10
2023-04-23T12:55:19.900Z,5.70
2023-04-23T13:00:23.426Z,10.50
2023-04-23T13:05:26.205Z,7.50
2023-04-23T13:10:31.022Z,6.90
2023-04-23T13:15:34.060Z,6.80
2023-04-23T13:20:36.888Z,9.20
2023-04-23T13:25:39.724Z,8.40
2023-04-23T13:30:42.506Z,7.90
2023-04-23T13:35:45.311Z,9.30
2023-04-23T13:40:48.232Z,10.80
2023-04-23T13:45:54.239Z,9.10
2023-04-23T13:51:01.776Z,10.00
2023-04-23T13:56:04.956Z,7.80
2023-04-23T14:01:07.840Z,7.90
2023-04-23T14:06:11.123Z,8.80
2023-04-23T14:11:13.933Z,9.40
2023-04-23T14:16:17.608Z,7.60
2023-04-23T14:21:20.555Z,7.80
2023-04-23T14:26:49.439Z,8.40
2023-04-23T14:31:52.993Z,10.10
2023-04-23T14:36:55.955Z,10.80
2023-04-23T14:41:58.851Z,8.50
2023-04-23T14:47:02.344Z,8.60
2023-04-23T14:52:05.228Z,8.20
2023-04-23T14:57:08.152Z,7.80
2023-04-23T15:02:12.280Z,7.90
2023-04-23T15:07:15.367Z,14.30
2023-04-23T15:12:37.956Z,8.20
2023-04-23T15:17:41.528Z,9.10
2023-04-23T15:22:47.896Z,12.70
2023-04-23T15:27:57.679Z,8.30
2023-04-23T15:33:00.641Z,8.50
2023-04-23T15:38:03.835Z,6.80
2023-04-23T15:43:06.759Z,8.40
2023-04-23T15:48:10.096Z,9.30
2023-04-23T15:53:13.069Z,7.40
2023-04-23T15:58:15.931Z,8.60
2023-04-23T16:03:18.973Z,8.80
2023-04-23T16:08:22.165Z,7.10
2023-04-23T16:13:26.760Z,11.00
2023-04-23T16:18:29.650Z,9.30
2023-04-23T16:23:32.463Z,11.20
2023-04-23T16:28:35.628Z,8.50
2023-04-23T16:33:38.604Z,9.70
2023-04-23T16:38:44.945Z,7.40
2023-04-23T16:43:47.790Z,7.40
2023-04-23T16:48:50.620Z,10.60
2023-04-23T16:53:53.406Z,9.20
2023-04-23T16:58:56.527Z,10.10
2023-04-23T17:03:59.527Z,10.50
2023-04-23T17:09:05.333Z,9.90
2023-04-23T17:14:08.191Z,9.10
2023-04-23T17:19:11.665Z,9.40
2023-04-23T17:24:14.559Z,10.70
2023-04-23T17:29:17.420Z,9.00
2023-04-23T17:34:20.205Z,10.20
2023-04-23T17:39:23.808Z,7.80
2023-04-23T17:44:26.746Z,12.20
2023-04-23T17:49:29.614Z,7.90
2023-04-23T17:54:32.546Z,11.60
2023-04-23T17:59:35.795Z,10.80
2023-04-23T18:04:38.651Z,8.40
2023-04-23T18:09:41.429Z,10.90
2023-04-23T18:14:44.318Z,11.20
2023-04-23T18:19:48.967Z,10.80
2023-04-23T18:24:51.792Z,8.70
2023-04-23T18:29:57.626Z,11.60
2023-04-23T18:35:01.996Z,8.20
2023-04-23T18:40:06.908Z,15.60
2023-04-23T18:45:10.793Z,11.10
2023-04-23T18:50:50.099Z,14.50
2023-04-23T18:55:52.902Z,13.70
2023-04-23T19:00:56.527Z,13.40
2023-04-23T19:05:59.645Z,10.10
2023-04-23T19:11:03.790Z,10.10
2023-04-23T19:16:08.942Z,11.50
2023-04-23T19:21:12.206Z,13.70
2023-04-23T19:26:15.017Z,10.40
2023-04-23T19:31:17.977Z,9.50
2023-04-23T19:36:20.959Z,8.80
2023-04-23T19:41:23.783Z,9.00
2023-04-23T19:46:26.685Z,9.10
2023-04-23T19:51:35.501Z,11.60
2023-04-23T19:56:38.331Z,10.30
2023-04-23T20:01:45.560Z,12.30
2023-04-23T20:06:48.412Z,10.30
2023-04-23T20:11:52.829Z,12.70
2023-04-23T20:16:56.802Z,14.20
2023-04-23T20:21:59.610Z,16.10
2023-04-23T20:27:02.489Z,15.30
2023-04-23T20:32:05.729Z,16.40
2023-04-23T20:37:08.814Z,14.10
2023-04-23T20:42:12.075Z,14.20
2023-04-23T20:47:18.720Z,13.10
2023-04-23T20:52:21.653Z,11.60
2023-04-23T20:57:24.498Z,10.80
2023-04-23T21:02:27.500Z,12.60
2023-04-23T21:07:31.131Z,15.00
2023-04-23T21:12:34.041Z,11.60
2023-04-23T21:17:36.904Z,12.60
2023-04-23T21:22:39.802Z,13.00
2023-04-23T21:27:46.016Z,15.50
2023-04-23T21:32:52.218Z,16.20
2023-04-23T21:37:55.382Z,12.90
2023-04-23T21:42:58.211Z,13.80
2023-04-23T21:48:02.002Z,12.40
2023-04-23T21:53:06.959Z,15.10
2023-04-23T22:03:20.533Z,12.80
2023-04-23T22:08:40.484Z,15.00
2023-04-23T22:13:43.406Z,12.60
2023-04-23T22:18:46.175Z,13.00
2023-04-23T22:23:49.055Z,13.40
2023-04-23T22:28:52.306Z,15.60
2023-04-23T22:33:55.305Z,16.30
2023-04-23T22:38:58.503Z,14.80
2023-04-23T22:44:01.270Z,14.50
2023-04-23T22:49:07.754Z,14.90
2023-04-23T22:54:10.662Z,13.00
2023-04-23T22:59:13.699Z,16.20
2023-04-23T23:04:16.580Z,13.30
2023-04-23T23:09:19.466Z,16.10
2023-04-23T23:14:23.213Z,19.50
2023-04-23T23:19:28.282Z,16.00
2023-04-23T23:24:31.092Z,16.50
2023-04-23T23:29:34.216Z,16.80
2023-04-23T23:34:37.010Z,11.90
2023-04-23T23:39:40.000Z,14.00
2023-04-23T23:44:42.951Z,14.40
2023-04-23T23:49:45.883Z,14.90
2023-04-23T23:54:48.791Z,14.40
2023-04-23T23:59:51.567Z,14.70
